createdAt,value
2018-03-16T00:00:46.224Z,8.88
2018-03-16T00:01:41.991Z,8.88
2018-03-16T00:02:46.182Z,8.85
2018-03-16T00:03:39.904Z,8.85
2018-03-16T00:04:39.895Z,8.88
2018-03-16T00:05:39.896Z,8.86
2018-03-16T00:06:39.895Z,8.86
2018-03-16T00:07:39.908Z,8.86
2018-03-16T00:08:39.905Z,8.88
2018-03-16T00:09:39.916Z,8.85
2018-03-16T00:10:39.904Z,8.88
2018-03-16T00:11:39.909Z,8.86
2018-03-16T00:12:39.921Z,8.86
2018-03-16T00:13:39.919Z,8.91
2018-03-16T00:14:39.921Z,8.88
2018-03-16T00:15:39.927Z,8.86
2018-03-16T00:16:39.947Z,8.85
2018-03-16T00:17:39.944Z,8.83
2018-03-16T00:18:39.950Z,8.86
2018-03-16T00:19:39.971Z,8.85
2018-03-16T00:20:39.955Z,8.85
2018-03-16T00:21:39.958Z,8.85
2018-03-16T00:22:40.012Z,8.82
2018-03-16T00:23:39.965Z,8.83
2018-03-16T00:24:39.999Z,8.82
2018-03-16T00:25:40.200Z,8.85
2018-03-16T00:26:39.973Z,8.83
2018-03-16T00:27:39.966Z,8.82
2018-03-16T00:28:40.134Z,8.83
2018-03-16T00:29:39.989Z,8.82
2018-03-16T00:30:39.977Z,8.83
2018-03-16T00:31:39.984Z,8.86
2018-03-16T00:32:39.991Z,8.83
2018-03-16T00:33:40.026Z,8.85
2018-03-16T00:34:39.995Z,8.85
2018-03-16T00:35:40.009Z,8.79
2018-03-16T00:36:40.016Z,8.8
2018-03-16T00:37:40.017Z,8.79
2018-03-16T00:38:40.037Z,8.83
2018-03-16T00:39:40.011Z,8.8
2018-03-16T00:40:40.015Z,8.82
2018-03-16T00:41:40.031Z,8.85
2018-03-16T00:42:40.035Z,8.86
2018-03-16T00:43:40.074Z,8.85
2018-03-16T00:44:40.040Z,8.85
2018-03-16T00:45:40.039Z,8.83
2018-03-16T00:46:40.060Z,8.83
2018-03-16T00:47:40.046Z,8.83
2018-03-16T00:48:40.070Z,8.83
2018-03-16T00:49:40.066Z,8.82
2018-03-16T00:50:40.057Z,8.83
2018-03-16T00:51:40.058Z,8.83
2018-03-16T00:52:40.064Z,8.82
2018-03-16T00:53:40.186Z,8.8
2018-03-16T00:54:40.073Z,8.79
2018-03-16T00:55:40.065Z,8.79
2018-03-16T00:56:40.074Z,8.79
2018-03-16T00:57:40.113Z,8.79
2018-03-16T00:58:40.227Z,8.79
2018-03-16T00:59:40.077Z,8.76
2018-03-16T01:00:40.068Z,8.76
2018-03-16T01:01:40.070Z,8.75
2018-03-16T01:02:40.083Z,8.76
2018-03-16T01:03:40.107Z,8.74
2018-03-16T01:04:40.088Z,8.76
2018-03-16T01:05:40.096Z,8.72
2018-03-16T01:06:40.119Z,8.69
2018-03-16T01:07:40.103Z,8.71
2018-03-16T01:08:40.119Z,8.69
2018-03-16T01:09:40.102Z,8.69
2018-03-16T01:10:40.116Z,8.68
2018-03-16T01:11:40.121Z,8.66
2018-03-16T01:12:40.120Z,8.68
2018-03-16T01:13:40.119Z,8.68
2018-03-16T01:14:40.149Z,8.68
2018-03-16T01:15:40.136Z,8.66
2018-03-16T01:16:40.141Z,8.66
2018-03-16T01:17:40.146Z,8.66
2018-03-16T01:18:40.157Z,8.66
2018-03-16T01:19:40.174Z,8.68
2018-03-16T01:20:40.168Z,8.65
2018-03-16T01:21:40.193Z,8.69
2018-03-16T01:22:40.174Z,8.69
2018-03-16T01:23:40.187Z,8.68
2018-03-16T01:24:40.231Z,8.69
2018-03-16T01:25:40.190Z,8.68
2018-03-16T01:26:40.190Z,8.68
2018-03-16T01:27:40.199Z,8.64
2018-03-16T01:28:40.198Z,8.65
2018-03-16T01:29:40.226Z,8.62
2018-03-16T01:30:40.215Z,8.64
2018-03-16T01:31:40.213Z,8.66
2018-03-16T01:32:40.213Z,8.66
2018-03-16T01:33:40.215Z,8.65
2018-03-16T01:34:40.249Z,8.65
2018-03-16T01:35:40.239Z,8.64
2018-03-16T01:36:40.220Z,8.65
2018-03-16T01:37:40.219Z,8.64
2018-03-16T01:38:40.226Z,8.64
2018-03-16T01:39:40.238Z,8.62
2018-03-16T01:40:40.248Z,8.65
2018-03-16T01:41:40.246Z,8.66
2018-03-16T01:42:40.245Z,8.65
2018-03-16T01:43:40.257Z,8.64
2018-03-16T01:44:40.261Z,8.65
2018-03-16T01:45:40.274Z,8.66
2018-03-16T01:46:40.252Z,8.65
2018-03-16T01:47:40.262Z,8.65
2018-03-16T01:48:40.259Z,8.64
2018-03-16T01:49:40.281Z,8.62
2018-03-16T01:50:40.298Z,8.62
2018-03-16T01:51:40.269Z,8.62
2018-03-16T01:52:40.288Z,8.64
2018-03-16T01:53:40.269Z,8.62
2018-03-16T01:54:40.276Z,8.59
2018-03-16T01:55:40.277Z,8.61
2018-03-16T01:56:40.293Z,8.58
2018-03-16T01:57:40.282Z,8.57
2018-03-16T01:58:40.282Z,8.57
2018-03-16T01:59:40.287Z,8.54
2018-03-16T02:00:40.317Z,8.59
2018-03-16T02:01:40.290Z,8.57
2018-03-16T02:02:40.294Z,8.57
2018-03-16T02:03:40.288Z,8.57
2018-03-16T02:04:40.299Z,8.58
2018-03-16T02:05:40.291Z,8.58
2018-03-16T02:06:40.301Z,8.55
2018-03-16T02:07:40.307Z,8.55
2018-03-16T02:08:40.311Z,8.55
2018-03-16T02:09:40.321Z,8.57
2018-03-16T02:10:40.322Z,8.51
2018-03-16T02:11:40.390Z,8.48
2018-03-16T02:12:40.327Z,8.49
2018-03-16T02:13:40.337Z,8.49
2018-03-16T02:14:40.334Z,8.49
2018-03-16T02:15:40.365Z,8.45
2018-03-16T02:16:40.337Z,8.48
2018-03-16T02:17:40.337Z,8.47
2018-03-16T02:18:40.340Z,8.47
2018-03-16T02:19:40.349Z,8.45
2018-03-16T02:20:40.370Z,8.45
2018-03-16T02:21:40.364Z,8.45
2018-03-16T02:22:40.365Z,8.43
2018-03-16T02:23:40.357Z,8.44
2018-03-16T02:24:40.360Z,8.44
2018-03-16T02:25:40.386Z,8.44
2018-03-16T02:26:40.367Z,8.47
2018-03-16T02:27:40.371Z,8.43
2018-03-16T02:28:40.383Z,8.43
2018-03-16T02:29:40.378Z,8.44
2018-03-16T02:30:40.428Z,8.44
2018-03-16T02:31:40.380Z,8.43
2018-03-16T02:32:40.390Z,8.44
2018-03-16T02:33:40.407Z,8.44
2018-03-16T02:34:40.395Z,8.43
2018-03-16T02:35:40.432Z,8.45
2018-03-16T02:36:40.421Z,8.45
2018-03-16T02:37:40.415Z,8.45
2018-03-16T02:38:40.414Z,8.44
2018-03-16T02:39:40.405Z,8.44
2018-03-16T02:40:40.450Z,8.45
2018-03-16T02:41:40.417Z,8.41
2018-03-16T02:42:40.417Z,8.43
2018-03-16T02:43:40.410Z,8.45
2018-03-16T02:44:40.422Z,8.43
2018-03-16T02:45:40.452Z,8.43
2018-03-16T02:46:40.425Z,8.44
2018-03-16T02:47:40.428Z,8.41
2018-03-16T02:48:40.445Z,8.43
2018-03-16T02:49:40.431Z,8.41
2018-03-16T02:50:40.474Z,8.41
2018-03-16T02:51:40.453Z,8.38
2018-03-16T02:52:40.445Z,8.38
2018-03-16T02:53:40.461Z,8.41
2018-03-16T02:54:40.448Z,8.4
2018-03-16T02:55:40.464Z,8.38
2018-03-16T02:56:40.453Z,8.38
2018-03-16T02:57:40.465Z,8.41
2018-03-16T02:58:40.539Z,8.37
2018-03-16T02:59:40.475Z,8.38
2018-03-16T03:00:40.496Z,8.38
2018-03-16T03:01:40.504Z,8.38
2018-03-16T03:02:40.485Z,8.37
2018-03-16T03:03:40.514Z,8.36
2018-03-16T03:04:40.514Z,8.4
2018-03-16T03:05:40.505Z,8.37
2018-03-16T03:06:40.549Z,8.38
2018-03-16T03:07:40.520Z,8.37
2018-03-16T03:08:40.542Z,8.37
2018-03-16T03:09:40.518Z,8.36
2018-03-16T03:10:40.532Z,8.33
2018-03-16T03:11:40.520Z,8.31
2018-03-16T03:12:40.522Z,8.33
2018-03-16T03:13:40.543Z,8.31
2018-03-16T03:14:40.517Z,8.33
2018-03-16T03:15:40.588Z,8.31
2018-03-16T03:16:40.538Z,8.29
2018-03-16T03:17:40.539Z,8.33
2018-03-16T03:18:40.615Z,8.3
2018-03-16T03:19:40.540Z,8.34
2018-03-16T03:20:40.569Z,8.31
2018-03-16T03:21:40.773Z,8.3
2018-03-16T03:22:40.554Z,8.3
2018-03-16T03:23:40.562Z,8.3
2018-03-16T03:24:40.556Z,8.33
2018-03-16T03:25:40.587Z,8.31
2018-03-16T03:26:40.600Z,8.31
2018-03-16T03:27:40.562Z,8.27
2018-03-16T03:28:40.564Z,8.3
2018-03-16T03:29:40.562Z,8.3
2018-03-16T03:30:40.567Z,8.27
2018-03-16T03:31:40.583Z,8.3
2018-03-16T03:32:40.594Z,8.31
2018-03-16T03:33:40.582Z,8.27
2018-03-16T03:34:40.587Z,8.31
2018-03-16T03:35:40.581Z,8.31
2018-03-16T03:36:40.598Z,8.3
2018-03-16T03:37:40.608Z,8.3
2018-03-16T03:38:40.604Z,8.31
2018-03-16T03:39:40.639Z,8.31
2018-03-16T03:40:40.606Z,8.29
2018-03-16T03:41:40.656Z,8.3
2018-03-16T03:42:40.606Z,8.29
2018-03-16T03:43:40.613Z,8.29
2018-03-16T03:44:40.619Z,8.29
2018-03-16T03:45:40.625Z,8.29
2018-03-16T03:46:40.632Z,8.27
2018-03-16T03:47:40.634Z,8.29
2018-03-16T03:48:40.648Z,8.29
2018-03-16T03:49:40.639Z,8.29
2018-03-16T03:50:40.649Z,8.24
2018-03-16T03:51:40.661Z,8.24
2018-03-16T03:52:40.661Z,8.26
2018-03-16T03:53:40.644Z,8.23
2018-03-16T03:54:40.641Z,8.21
2018-03-16T03:55:40.645Z,8.23
2018-03-16T03:56:40.648Z,8.21
2018-03-16T03:57:40.648Z,8.19
2018-03-16T03:58:40.747Z,8.2
2018-03-16T03:59:40.685Z,8.19
2018-03-16T04:00:40.668Z,8.19
2018-03-16T04:01:40.664Z,8.19
2018-03-16T04:02:40.830Z,8.2
2018-03-16T04:03:40.671Z,8.21
2018-03-16T04:04:40.679Z,8.19
2018-03-16T04:05:40.688Z,8.16
2018-03-16T04:06:40.684Z,8.19
2018-03-16T04:07:40.697Z,8.17
2018-03-16T04:08:40.723Z,8.17
2018-03-16T04:09:40.690Z,8.17
2018-03-16T04:10:40.682Z,8.14
2018-03-16T04:11:40.697Z,8.16
2018-03-16T04:12:40.710Z,8.16
2018-03-16T04:13:40.691Z,8.16
2018-03-16T04:14:40.680Z,8.16
2018-03-16T04:15:40.691Z,8.13
2018-03-16T04:16:40.694Z,8.1
2018-03-16T04:17:40.696Z,8.14
2018-03-16T04:18:40.719Z,8.12
2018-03-16T04:19:40.708Z,8.12
2018-03-16T04:20:40.690Z,8.1
2018-03-16T04:21:40.704Z,8.1
2018-03-16T04:22:40.698Z,8.09
2018-03-16T04:23:40.697Z,8.12
2018-03-16T04:24:40.755Z,8.13
2018-03-16T04:25:40.715Z,8.12
2018-03-16T04:26:40.714Z,8.1
2018-03-16T04:27:40.713Z,8.12
2018-03-16T04:28:40.722Z,8.1
2018-03-16T04:29:40.746Z,8.12
2018-03-16T04:30:40.731Z,8.09
2018-03-16T04:31:40.749Z,8.12
2018-03-16T04:32:40.740Z,8.12
2018-03-16T04:33:40.749Z,8.09
2018-03-16T04:34:40.782Z,8.09
2018-03-16T04:35:40.756Z,8.09
2018-03-16T04:36:40.762Z,8.09
2018-03-16T04:37:40.778Z,8.12
2018-03-16T04:38:40.774Z,8.12
2018-03-16T04:39:40.771Z,8.12
2018-03-16T04:40:40.780Z,8.12
2018-03-16T04:41:40.946Z,8.09
2018-03-16T04:42:40.787Z,8.09
2018-03-16T04:43:40.786Z,8.08
2018-03-16T04:44:40.785Z,8.08
2018-03-16T04:45:40.800Z,8.08
2018-03-16T04:46:40.821Z,8.08
2018-03-16T04:47:40.821Z,8.05
2018-03-16T04:48:40.828Z,8.05
2018-03-16T04:49:40.803Z,8.01
2018-03-16T04:50:40.810Z,8.01
2018-03-16T04:51:40.825Z,8.02
2018-03-16T04:52:40.816Z,8.05
2018-03-16T04:53:40.831Z,8.05
2018-03-16T04:54:40.816Z,8.08
2018-03-16T04:55:40.813Z,8.09
2018-03-16T04:56:40.868Z,8.06
2018-03-16T04:57:40.853Z,8.05
2018-03-16T04:58:40.834Z,8.06
2018-03-16T04:59:40.844Z,8.06
2018-03-16T05:00:40.839Z,8.06
2018-03-16T05:01:40.847Z,8.08
2018-03-16T05:02:40.875Z,8.05
2018-03-16T05:03:40.871Z,8.09
2018-03-16T05:04:40.842Z,8.08
2018-03-16T05:05:40.849Z,8.09
2018-03-16T05:06:40.848Z,8.1
2018-03-16T05:07:40.861Z,8.08
2018-03-16T05:08:40.906Z,8.09
2018-03-16T05:09:40.889Z,8.09
2018-03-16T05:10:40.870Z,8.09
2018-03-16T05:11:40.880Z,8.09
2018-03-16T05:12:40.902Z,8.08
2018-03-16T05:13:40.893Z,8.06
2018-03-16T05:14:40.921Z,8.06
2018-03-16T05:15:41.265Z,8.06
2018-03-16T05:16:40.890Z,8.08
2018-03-16T05:17:40.899Z,8.06
2018-03-16T05:18:40.956Z,8.06
2018-03-16T05:19:40.906Z,8.06
2018-03-16T05:20:40.929Z,8.05
2018-03-16T05:21:40.935Z,8.06
2018-03-16T05:22:40.927Z,8.08
2018-03-16T05:23:40.944Z,8.05
2018-03-16T05:24:41.140Z,8.09
2018-03-16T05:25:41.196Z,8.09
2018-03-16T05:26:40.969Z,8.09
2018-03-16T05:27:40.949Z,8.08
2018-03-16T05:28:40.960Z,8.06
2018-03-16T05:29:40.951Z,8.08
2018-03-16T05:30:41.047Z,8.1
2018-03-16T05:31:40.978Z,8.09
2018-03-16T05:32:40.954Z,8.09
2018-03-16T05:33:40.963Z,8.1
2018-03-16T05:34:40.963Z,8.12
2018-03-16T05:35:40.959Z,8.09
2018-03-16T05:36:41.241Z,8.1
2018-03-16T05:37:40.979Z,8.1
2018-03-16T05:38:40.983Z,8.09
2018-03-16T05:39:40.984Z,8.08
2018-03-16T05:40:41.120Z,8.08
2018-03-16T05:41:41.017Z,8.08
2018-03-16T05:42:41.009Z,8.1
2018-03-16T05:43:40.994Z,8.1
2018-03-16T05:44:40.994Z,8.08
2018-03-16T05:45:41.011Z,8.1
2018-03-16T05:46:41.013Z,8.03
2018-03-16T05:47:41.016Z,8.02
2018-03-16T05:48:41.014Z,8.01
2018-03-16T05:49:41.022Z,8.01
2018-03-16T05:50:41.031Z,7.98
2018-03-16T05:51:41.018Z,7.96
2018-03-16T05:52:41.057Z,7.95
2018-03-16T05:53:41.093Z,7.96
2018-03-16T05:54:41.044Z,7.98
2018-03-16T05:55:41.035Z,7.93
2018-03-16T05:56:41.102Z,7.95
2018-03-16T05:57:41.178Z,7.96
2018-03-16T05:58:41.087Z,7.98
2018-03-16T05:59:41.047Z,7.99
2018-03-16T06:00:41.168Z,7.98
2018-03-16T06:01:41.065Z,7.98
2018-03-16T06:02:41.088Z,7.99
2018-03-16T06:03:41.102Z,7.99
2018-03-16T06:04:41.074Z,8.01
2018-03-16T06:05:41.076Z,8.02
2018-03-16T06:06:41.075Z,8.01
2018-03-16T06:07:41.095Z,8.02
2018-03-16T06:08:41.099Z,7.98
2018-03-16T06:09:41.081Z,7.98
2018-03-16T06:10:41.084Z,7.96
2018-03-16T06:11:41.098Z,7.99
2018-03-16T06:12:41.096Z,7.99
2018-03-16T06:13:41.111Z,7.99
2018-03-16T06:14:41.094Z,8.01
2018-03-16T06:15:41.097Z,8.01
2018-03-16T06:16:41.127Z,8.01
2018-03-16T06:17:41.154Z,7.99
2018-03-16T06:18:41.550Z,8.02
2018-03-16T06:19:41.110Z,8.02
2018-03-16T06:20:41.106Z,8.01
2018-03-16T06:21:41.113Z,7.99
2018-03-16T06:22:41.122Z,8.05
2018-03-16T06:23:41.151Z,8.05
2018-03-16T06:24:41.199Z,8.05
2018-03-16T06:25:41.141Z,8.06
2018-03-16T06:26:41.133Z,8.05
2018-03-16T06:27:41.134Z,8.03
2018-03-16T06:28:41.145Z,8.05
2018-03-16T06:29:41.149Z,8.02
2018-03-16T06:30:41.161Z,8.01
2018-03-16T06:31:41.151Z,8.02
2018-03-16T06:32:41.158Z,8.03
2018-03-16T06:33:41.158Z,8.05
2018-03-16T06:34:41.187Z,8.06
2018-03-16T06:35:41.163Z,8.03
2018-03-16T06:36:41.180Z,8.05
2018-03-16T06:37:41.172Z,8.05
2018-03-16T06:38:41.179Z,8.05
2018-03-16T06:39:41.213Z,8.02
2018-03-16T06:40:41.188Z,8.03
2018-03-16T06:41:41.215Z,8.03
2018-03-16T06:42:41.222Z,8.01
2018-03-16T06:43:41.195Z,8.01
2018-03-16T06:44:41.889Z,7.99
2018-03-16T06:45:41.229Z,8.01
2018-03-16T06:46:41.240Z,8.02
2018-03-16T06:47:41.238Z,8.05
2018-03-16T06:48:41.206Z,8.03
2018-03-16T06:49:41.206Z,8.03
2018-03-16T06:50:41.207Z,8.02
2018-03-16T06:51:41.335Z,8.05
2018-03-16T06:52:41.207Z,8.05
2018-03-16T06:53:41.215Z,8.05
2018-03-16T06:54:41.240Z,8.02
2018-03-16T06:55:41.235Z,8.06
2018-03-16T06:56:41.279Z,8.06
2018-03-16T06:57:41.238Z,8.05
2018-03-16T06:58:41.257Z,8.06
2018-03-16T06:59:41.241Z,8.09
2018-03-16T07:00:41.241Z,8.09
2018-03-16T07:01:41.245Z,8.09
2018-03-16T07:02:41.255Z,8.06
2018-03-16T07:03:41.269Z,8.05
2018-03-16T07:04:41.270Z,8.09
2018-03-16T07:05:41.306Z,8.09
2018-03-16T07:06:41.259Z,8.09
2018-03-16T07:07:41.272Z,8.08
2018-03-16T07:08:41.279Z,8.13
2018-03-16T07:09:41.280Z,8.09
2018-03-16T07:10:41.285Z,8.12
2018-03-16T07:11:41.289Z,8.13
2018-03-16T07:12:41.401Z,8.12
2018-03-16T07:13:41.290Z,8.1
2018-03-16T07:14:41.302Z,8.1
2018-03-16T07:15:41.309Z,8.12
2018-03-16T07:16:41.286Z,8.12
2018-03-16T07:17:41.303Z,8.1
2018-03-16T07:18:41.305Z,8.12
2018-03-16T07:19:41.402Z,8.13
2018-03-16T07:20:41.338Z,8.1
2018-03-16T07:21:41.301Z,8.12
2018-03-16T07:22:41.319Z,8.16
2018-03-16T07:23:41.316Z,8.14
2018-03-16T07:24:41.329Z,8.16
2018-03-16T07:25:41.349Z,8.16
2018-03-16T07:26:41.340Z,8.13
2018-03-16T07:27:41.332Z,8.13
2018-03-16T07:28:41.403Z,8.13
2018-03-16T07:29:41.395Z,8.16
2018-03-16T07:30:41.418Z,8.14
2018-03-16T07:31:41.352Z,8.17
2018-03-16T07:32:41.367Z,8.13
2018-03-16T07:33:41.361Z,8.13
2018-03-16T07:34:41.354Z,8.17
2018-03-16T07:35:41.347Z,8.14
2018-03-16T07:36:41.386Z,8.14
2018-03-16T07:37:41.365Z,8.14
2018-03-16T07:38:41.378Z,8.16
2018-03-16T07:39:41.364Z,8.14
2018-03-16T07:40:41.368Z,8.14
2018-03-16T07:41:41.408Z,8.16
2018-03-16T07:42:41.380Z,8.17
2018-03-16T07:43:41.394Z,8.17
2018-03-16T07:44:41.390Z,8.17
2018-03-16T07:45:41.401Z,8.17
2018-03-16T07:46:41.452Z,8.14
2018-03-16T07:47:41.398Z,8.17
2018-03-16T07:48:41.417Z,8.17
2018-03-16T07:49:41.403Z,8.17
2018-03-16T07:50:41.464Z,8.14
2018-03-16T07:51:41.424Z,8.19
2018-03-16T07:52:41.676Z,8.17
2018-03-16T07:53:41.422Z,8.19
2018-03-16T07:54:41.409Z,8.19
2018-03-16T07:55:41.504Z,8.16
2018-03-16T07:56:41.447Z,8.21
2018-03-16T07:57:41.423Z,8.19
2018-03-16T07:58:41.418Z,8.2
2018-03-16T07:59:41.437Z,8.2
2018-03-16T08:00:41.440Z,8.16
2018-03-16T08:01:41.455Z,8.14
2018-03-16T08:02:41.443Z,8.16
2018-03-16T08:03:41.467Z,8.16
2018-03-16T08:04:41.454Z,8.13
2018-03-16T08:05:41.461Z,8.14
2018-03-16T08:06:41.504Z,8.13
2018-03-16T08:07:41.451Z,8.12
2018-03-16T08:08:41.566Z,8.14
2018-03-16T08:09:41.467Z,8.16
2018-03-16T08:10:41.478Z,8.14
2018-03-16T08:11:41.493Z,8.13
2018-03-16T08:12:41.496Z,8.17
2018-03-16T08:13:41.480Z,8.14
2018-03-16T08:14:41.478Z,8.17
2018-03-16T08:15:41.476Z,8.14
2018-03-16T08:16:41.514Z,8.12
2018-03-16T08:17:41.478Z,8.1
2018-03-16T08:18:41.498Z,8.12
2018-03-16T08:19:41.489Z,8.13
2018-03-16T08:20:41.492Z,8.12
2018-03-16T08:21:41.517Z,8.14
2018-03-16T08:22:41.511Z,8.13
2018-03-16T08:23:41.518Z,8.1
2018-03-16T08:24:41.504Z,8.13
2018-03-16T08:25:41.498Z,8.14
2018-03-16T08:26:41.524Z,8.12
2018-03-16T08:27:41.509Z,8.13
2018-03-16T08:28:41.510Z,8.12
2018-03-16T08:29:41.515Z,8.12
2018-03-16T08:30:41.523Z,8.1
2018-03-16T08:31:41.537Z,8.09
2018-03-16T08:32:41.534Z,8.08
2018-03-16T08:33:41.539Z,8.06
2018-03-16T08:34:41.556Z,8.1
2018-03-16T08:35:41.525Z,8.1
2018-03-16T08:36:41.545Z,8.1
2018-03-16T08:37:41.541Z,8.12
2018-03-16T08:38:41.542Z,8.1
2018-03-16T08:39:41.543Z,8.14
2018-03-16T08:40:41.556Z,8.12
2018-03-16T08:41:41.544Z,8.17
2018-03-16T08:42:41.550Z,8.16
2018-03-16T08:43:41.822Z,8.14
2018-03-16T08:44:41.548Z,8.19
2018-03-16T08:45:41.554Z,8.17
2018-03-16T08:46:41.556Z,8.21
2018-03-16T08:47:41.559Z,8.21
2018-03-16T08:48:41.594Z,8.21
2018-03-16T08:49:41.578Z,8.2
2018-03-16T08:50:41.581Z,8.23
2018-03-16T08:51:41.586Z,8.24
2018-03-16T08:52:41.593Z,8.23
2018-03-16T08:53:41.620Z,8.23
2018-03-16T08:54:41.592Z,8.21
2018-03-16T08:55:41.602Z,8.23
2018-03-16T08:56:41.609Z,8.26
2018-03-16T08:57:41.613Z,8.21
2018-03-16T08:58:41.637Z,8.2
2018-03-16T08:59:41.676Z,8.2
2018-03-16T09:00:41.625Z,8.23
2018-03-16T09:01:41.615Z,8.23
2018-03-16T09:02:41.626Z,8.23
2018-03-16T09:03:41.645Z,8.26
2018-03-16T09:04:41.635Z,8.26
2018-03-16T09:05:41.626Z,8.29
2018-03-16T09:06:41.628Z,8.29
2018-03-16T09:07:41.646Z,8.24
2018-03-16T09:08:41.665Z,8.24
2018-03-16T09:09:41.651Z,8.27
2018-03-16T09:10:41.650Z,8.3
2018-03-16T09:11:41.650Z,8.26
2018-03-16T09:12:41.710Z,8.31
2018-03-16T09:13:41.657Z,8.29
2018-03-16T09:14:41.694Z,8.3
2018-03-16T09:15:41.666Z,8.34
2018-03-16T09:16:41.657Z,8.31
2018-03-16T09:17:41.673Z,8.33
2018-03-16T09:18:41.694Z,8.34
2018-03-16T09:19:41.703Z,8.34
2018-03-16T09:20:41.669Z,8.36
2018-03-16T09:21:41.672Z,8.29
2018-03-16T09:22:41.684Z,8.29
2018-03-16T09:23:41.688Z,8.24
2018-03-16T09:24:41.698Z,8.29
2018-03-16T09:25:41.697Z,8.3
2018-03-16T09:26:41.707Z,8.34
2018-03-16T09:27:41.689Z,8.33
2018-03-16T09:28:41.701Z,8.33
2018-03-16T09:29:41.844Z,8.34
2018-03-16T09:30:41.713Z,8.36
2018-03-16T09:31:41.720Z,8.37
2018-03-16T09:32:41.920Z,8.37
2018-03-16T09:33:41.712Z,8.38
2018-03-16T09:34:41.742Z,8.37
2018-03-16T09:35:41.754Z,8.4
2018-03-16T09:36:41.717Z,8.38
2018-03-16T09:37:41.723Z,8.38
2018-03-16T09:38:41.727Z,8.43
2018-03-16T09:39:41.762Z,8.41
2018-03-16T09:40:41.740Z,8.44
2018-03-16T09:41:41.747Z,8.44
2018-03-16T09:42:41.738Z,8.45
2018-03-16T09:43:41.796Z,8.44
2018-03-16T09:44:41.771Z,8.44
2018-03-16T09:45:41.750Z,8.43
2018-03-16T09:46:41.755Z,8.43
2018-03-16T09:47:41.769Z,8.48
2018-03-16T09:48:41.775Z,8.45
2018-03-16T09:49:41.799Z,8.47
2018-03-16T09:50:41.941Z,8.45
2018-03-16T09:51:41.784Z,8.48
2018-03-16T09:52:41.795Z,8.44
2018-03-16T09:53:41.792Z,8.49
2018-03-16T09:54:41.810Z,8.47
2018-03-16T09:55:41.790Z,8.47
2018-03-16T09:56:42.065Z,8.44
2018-03-16T09:57:41.811Z,8.47
2018-03-16T09:58:41.811Z,8.48
2018-03-16T09:59:41.811Z,8.48
2018-03-16T10:00:41.824Z,8.45
2018-03-16T10:01:41.839Z,8.47
2018-03-16T10:02:41.818Z,8.48
2018-03-16T10:03:41.827Z,8.48
2018-03-16T10:04:41.821Z,8.47
2018-03-16T10:05:41.821Z,8.47
2018-03-16T10:06:41.847Z,8.49
2018-03-16T10:07:41.820Z,8.49
2018-03-16T10:08:41.826Z,8.48
2018-03-16T10:09:41.861Z,8.48
2018-03-16T10:10:41.841Z,8.51
2018-03-16T10:11:41.850Z,8.49
2018-03-16T10:12:41.843Z,8.52
2018-03-16T10:13:41.849Z,8.52
2018-03-16T10:14:41.846Z,8.51
2018-03-16T10:15:41.854Z,8.54
2018-03-16T10:16:41.881Z,8.55
2018-03-16T10:17:41.968Z,8.57
2018-03-16T10:18:41.858Z,8.57
2018-03-16T10:19:42.150Z,8.58
2018-03-16T10:20:41.887Z,8.59
2018-03-16T10:21:41.879Z,8.62
2018-03-16T10:22:41.864Z,8.62
2018-03-16T10:23:41.885Z,8.66
2018-03-16T10:24:41.890Z,8.66
2018-03-16T10:25:41.996Z,8.68
2018-03-16T10:26:41.877Z,8.74
2018-03-16T10:27:41.920Z,8.75
2018-03-16T10:28:41.870Z,8.76
2018-03-16T10:29:41.877Z,8.76
2018-03-16T10:30:41.875Z,8.8
2018-03-16T10:31:41.903Z,8.85
2018-03-16T10:32:41.890Z,8.86
2018-03-16T10:33:41.902Z,8.91
2018-03-16T10:34:41.902Z,8.95
2018-03-16T10:35:41.915Z,8.95
2018-03-16T10:36:41.904Z,8.99
2018-03-16T10:37:41.906Z,9.03
2018-03-16T10:38:41.907Z,9.03
2018-03-16T10:39:41.974Z,9.07
2018-03-16T10:40:41.929Z,9.1
2018-03-16T10:41:41.912Z,9.14
2018-03-16T10:42:41.963Z,9.16
2018-03-16T10:43:41.918Z,9.16
2018-03-16T10:44:41.923Z,9.23
2018-03-16T10:45:42.221Z,9.21
2018-03-16T10:46:41.927Z,9.24
2018-03-16T10:47:41.925Z,9.24
2018-03-16T10:48:41.920Z,9.27
2018-03-16T10:49:41.931Z,9.26
2018-03-16T10:50:41.955Z,9.31
2018-03-16T10:51:41.939Z,9.33
2018-03-16T10:52:41.946Z,9.34
2018-03-16T10:53:41.940Z,9.35
2018-03-16T10:54:41.947Z,9.34
2018-03-16T10:55:42.008Z,9.35
2018-03-16T10:56:41.970Z,9.37
2018-03-16T10:57:41.977Z,9.44
2018-03-16T10:58:41.957Z,9.44
2018-03-16T10:59:41.988Z,9.48
2018-03-16T11:00:42.031Z,9.55
2018-03-16T11:01:41.985Z,9.54
2018-03-16T11:02:42.029Z,9.55
2018-03-16T11:03:41.984Z,9.58
2018-03-16T11:04:41.990Z,9.57
2018-03-16T11:05:41.989Z,9.58
2018-03-16T11:06:42.138Z,9.61
2018-03-16T11:07:42.006Z,9.61
2018-03-16T11:08:41.995Z,9.58
2018-03-16T11:09:42.000Z,9.57
2018-03-16T11:10:42.007Z,9.59
2018-03-16T11:11:42.303Z,9.58
2018-03-16T11:12:41.996Z,9.59
2018-03-16T11:13:42.012Z,9.58
2018-03-16T11:14:42.015Z,9.61
2018-03-16T11:15:42.007Z,9.57
2018-03-16T11:16:42.040Z,9.59
2018-03-16T11:17:42.019Z,9.61
2018-03-16T11:18:42.016Z,9.61
2018-03-16T11:19:42.009Z,9.61
2018-03-16T11:20:42.014Z,9.63
2018-03-16T11:21:42.012Z,9.61
2018-03-16T11:22:42.011Z,9.61
2018-03-16T11:23:42.019Z,9.63
2018-03-16T11:24:42.047Z,9.63
2018-03-16T11:25:42.032Z,9.65
2018-03-16T11:26:42.040Z,9.69
2018-03-16T11:27:42.059Z,9.69
2018-03-16T11:28:42.031Z,9.7
2018-03-16T11:29:42.120Z,9.7
2018-03-16T11:30:42.044Z,9.75
2018-03-16T11:31:42.051Z,9.75
2018-03-16T11:32:42.044Z,9.76
2018-03-16T11:33:42.035Z,9.78
2018-03-16T11:34:42.042Z,9.78
2018-03-16T11:35:42.034Z,9.81
2018-03-16T11:36:42.177Z,9.82
2018-03-16T11:37:42.047Z,9.81
2018-03-16T11:38:42.057Z,9.85
2018-03-16T11:39:42.054Z,9.85
2018-03-16T11:40:42.057Z,9.86
2018-03-16T11:41:42.082Z,9.85
2018-03-16T11:42:42.080Z,9.86
2018-03-16T11:43:42.078Z,9.89
2018-03-16T11:44:42.091Z,9.93
2018-03-16T11:45:42.093Z,9.93
2018-03-16T11:46:42.115Z,9.96
2018-03-16T11:47:42.099Z,9.96
2018-03-16T11:48:42.100Z,9.97
2018-03-16T11:49:42.094Z,9.96
2018-03-16T11:50:42.120Z,10.02
2018-03-16T11:51:42.129Z,10.07
2018-03-16T11:52:42.171Z,10.1
2018-03-16T11:53:42.240Z,10.09
2018-03-16T11:54:42.112Z,10.07
2018-03-16T11:55:42.129Z,10.09
2018-03-16T11:56:42.153Z,10.11
2018-03-16T11:57:42.116Z,10.1
2018-03-16T11:58:42.132Z,10.1
2018-03-16T11:59:42.288Z,10.16
2018-03-16T12:00:42.134Z,10.19
2018-03-16T12:01:42.154Z,10.19
2018-03-16T12:02:42.144Z,10.2
2018-03-16T12:03:42.153Z,10.17
2018-03-16T12:04:42.140Z,10.19
2018-03-16T12:05:42.985Z,10.19
2018-03-16T12:06:43.871Z,10.17
2018-03-16T12:07:42.147Z,10.16
2018-03-16T12:08:42.148Z,10.19
2018-03-16T12:09:42.152Z,10.19
2018-03-16T12:10:42.247Z,10.2
2018-03-16T12:11:42.160Z,10.2
2018-03-16T12:12:42.179Z,10.2
2018-03-16T12:13:42.171Z,10.24
2018-03-16T12:14:42.175Z,10.21
2018-03-16T12:15:42.172Z,10.23
2018-03-16T12:16:42.200Z,10.28
2018-03-16T12:17:42.182Z,10.24
2018-03-16T12:18:42.202Z,10.25
2018-03-16T12:19:42.190Z,10.28
2018-03-16T12:20:42.179Z,10.3
2018-03-16T12:21:42.235Z,10.32
2018-03-16T12:22:42.208Z,10.32
2018-03-16T12:23:42.221Z,10.32
2018-03-16T12:24:42.197Z,10.35
2018-03-16T12:25:42.205Z,10.37
2018-03-16T12:26:42.340Z,10.38
2018-03-16T12:27:42.248Z,10.39
2018-03-16T12:28:50.651Z,10.44
2018-03-16T12:29:42.230Z,10.47
2018-03-16T12:30:42.258Z,10.49
2018-03-16T12:31:42.270Z,10.52
2018-03-16T12:32:42.276Z,10.59
2018-03-16T12:33:42.270Z,10.65
2018-03-16T12:34:42.303Z,10.66
2018-03-16T12:35:42.248Z,10.66
2018-03-16T12:36:42.223Z,10.71
2018-03-16T12:37:42.325Z,10.73
2018-03-16T12:38:42.317Z,10.75
2018-03-16T12:39:42.227Z,10.78
2018-03-16T12:40:42.233Z,10.8
2018-03-16T12:41:42.357Z,10.84
2018-03-16T12:42:42.350Z,10.84
2018-03-16T12:43:42.234Z,10.87
2018-03-16T12:44:42.262Z,10.93
2018-03-16T12:45:42.244Z,10.94
2018-03-16T12:46:42.495Z,10.99
2018-03-16T12:47:42.266Z,11.03
2018-03-16T12:48:42.253Z,11.06
2018-03-16T12:49:42.285Z,11.08
2018-03-16T12:50:42.260Z,11.14
2018-03-16T12:51:42.646Z,11.18
2018-03-16T12:52:42.314Z,11.22
2018-03-16T12:53:42.315Z,11.24
2018-03-16T12:54:42.273Z,11.34
2018-03-16T12:55:42.273Z,11.37
2018-03-16T12:56:42.346Z,11.48
2018-03-16T12:57:42.376Z,11.51
2018-03-16T12:58:42.360Z,11.55
2018-03-16T12:59:42.368Z,11.62
2018-03-16T13:00:42.391Z,11.69
2018-03-16T13:01:42.307Z,11.69
2018-03-16T13:02:43.133Z,11.7
2018-03-16T13:03:42.393Z,11.72
2018-03-16T13:04:42.393Z,11.73
2018-03-16T13:05:42.319Z,11.72
2018-03-16T13:06:42.382Z,11.72
2018-03-16T13:07:42.388Z,11.72
2018-03-16T13:08:42.542Z,11.72
2018-03-16T13:09:42.329Z,11.73
2018-03-16T13:10:42.329Z,11.76
2018-03-16T13:11:42.325Z,11.79
2018-03-16T13:12:42.342Z,11.83
2018-03-16T13:13:42.354Z,11.86
2018-03-16T13:14:42.361Z,11.84
2018-03-16T13:15:42.339Z,11.83
2018-03-16T13:16:42.361Z,11.84
2018-03-16T13:17:42.419Z,11.83